VTBUVVDN

Guest
Details From VTBU - Rayon U-taphao Intl
To VVDN - Danang Intl
Flight Number -
Tags Generated
Created
Modified
Stats Distance 465 nm / 861 km
Max Altitude 0 ft / 0 m
Waypoints 3
Social Downloads 3
Likes 0
Share VATSIM

Download

Looking for another format? Having issues loading an existing format? Contact us
Advertisement - Login to hide

Notes

Generated

Route

VTBU DAN VVDN

ID Type Via Altitude Latitude Longitude Leg Dist Tot Dist Heading (true) Name
O VTBU APT - 0 ft / 0 m 12.69583˚ 101.00635˚ - 0 nm - -
DAN VOR - 0 ft / 0 m 16.05276˚ 108.19823˚ 464 nm 464 nm 63° / 65° DANANG VOR-DME
O VVDN APT - 0 ft / 0 m 16.05741˚ 108.19643˚ 0 nm 464 nm 340° / 340° -

Altitude Profile

Advertisement - Login to hide

Weather


0- 5 10 15 20 25 30 35+ Temperature / ° C

Clouds and Precipitation
Forecast for 2017-12-14 18:00 UTC. Updated 4 minutes ago

Ground ~20,000 ft ~40,000 ft Winds

VTBU

Details ICAO VTBU (UTP)
Name Rayon U-Taphao Intl
Region Thailand
Timezone Asia/Bangkok (UTC+7.0)
Stats Elevation 59 ft / 18 m (AMSL)
Location 12.679954° 101.005033°
Runways 1
Magnetic Variation 0.519° W

METAR

VTBU 141700Z 00000KT 4000 BR FEW020 27/23 Q1011 NOSIG

Decode

TAF

TAF VTBU 141100Z 1412/1512 19006KT 4000 BR FEW020 BECMG 1418/1420 01004KT 3000 BR BECMG 1503/1505 17008KT 5000 BR

Decode

Departure Runways

ID Width Length Bearing (true) Bearing (mag) Surface Threshold Offset Overrun Length
18 197 ft / 60 m 11,627 ft / 3,544 m 184.62° 185.14° Asphalt 0 ft / 0 m 1,000 ft / 305 m
36 197 ft / 60 m 11,627 ft / 3,544 m 4.62° 5.14° Asphalt 0 ft / 0 m 1,000 ft / 305 m

VVDN

Details ICAO VVDN (DAD)
Name DANANG INTL
Region Vietnam
Timezone Asia/Ho_Chi_Minh (UTC+7.0)
Stats Elevation 33 ft / 10 m (AMSL)
Location 16.043901° 108.199400°
Runways 2
Magnetic Variation 1.174° W

METAR

VVDN 141700Z 31003KT 7000 SCT012 BKN050 24/22 Q1015 NOSIG

Decode

TAF

TAF VVDN 141100Z 1412/1512 36008KT 7000 FEW015 BECMG 1416/1418 4000 BR BKN012 BKN050 TEMPO 1418/1501 2000 RA BR BECMG 1501/1502 6000 NSW TEMPO 1502/1512 3000 RA BR

Decode

Destination Runways

ID Width Length Bearing (true) Bearing (mag) Surface Threshold Offset Overrun Length
17L 148 ft / 45 m 10,053 ft / 3,064 m 172.06° 173.23° Asphalt 0 ft / 0 m 1,000 ft / 305 m
17R 148 ft / 45 m 10,052 ft / 3,064 m 172.06° 173.23° Asphalt 0 ft / 0 m 1,000 ft / 305 m
35L 148 ft / 45 m 10,052 ft / 3,064 m 352.06° 353.23° Asphalt 0 ft / 0 m 1,000 ft / 305 m
35R 148 ft / 45 m 10,053 ft / 3,064 m 352.06° 353.23° Asphalt 0 ft / 0 m 1,000 ft / 305 m

Approach Navaids

Runway Type Ident Frequency Range Bearing (true) Bearing (mag) Slope Elevation
35R Localiser DAD 110.50 MHz 18 nm / 33 km 352.06° 353.23° - 30 ft / 9 m (AMSL)
35R Glidescope DAD 110.50 MHz 10 nm / 19 km 352.06° 353.23° 3.00° 36 ft / 11 m (AMSL)
35R DME DAD 110.50 MHz 18 nm / 33 km - - - 33 ft / 10 m (AMSL)